sensor_id;sensor_type;location;lat;lon;timestamp;temperature;humidity
28010;DHT22;15334;49.494;8.410;2023-02-03T00:01:29;8.40;99.90
28010;DHT22;15334;49.494;8.410;2023-02-03T00:03:57;8.40;99.90
28010;DHT22;15334;49.494;8.410;2023-02-03T00:06:25;8.40;99.90
28010;DHT22;15334;49.494;8.410;2023-02-03T00:08:55;8.40;99.90
28010;DHT22;15334;49.494;8.410;2023-02-03T00:11:25;8.40;99.90
28010;DHT22;15334;49.494;8.410;2023-02-03T00:13:53;8.40;99.90
28010;DHT22;15334;49.494;8.410;2023-02-03T00:16:21;8.40;99.90
28010;DHT22;15334;49.494;8.410;2023-02-03T00:18:50;8.40;99.90
28010;DHT22;15334;49.494;8.410;2023-02-03T00:21:18;8.30;99.90
28010;DHT22;15334;49.494;8.410;2023-02-03T00:23:46;8.30;99.90
28010;DHT22;15334;49.494;8.410;2023-02-03T00:26:15;8.30;99.90
28010;DHT22;15334;49.494;8.410;2023-02-03T00:28:45;8.30;99.90
28010;DHT22;15334;49.494;8.410;2023-02-03T00:31:14;8.30;99.90
28010;DHT22;15334;49.494;8.410;2023-02-03T00:33:43;8.30;99.90
28010;DHT22;15334;49.494;8.410;2023-02-03T00:36:11;8.30;99.90
28010;DHT22;15334;49.494;8.410;2023-02-03T00:38:40;8.40;99.90
28010;DHT22;15334;49.494;8.410;2023-02-03T00:41:10;8.40;99.90
28010;DHT22;15334;49.494;8.410;2023-02-03T00:43:38;8.40;99.90
28010;DHT22;15334;49.494;8.410;2023-02-03T00:46:08;8.30;99.90
28010;DHT22;15334;49.494;8.410;2023-02-03T00:48:36;8.30;99.90
28010;DHT22;15334;49.494;8.410;2023-02-03T00:51:04;8.30;99.90
28010;DHT22;15334;49.494;8.410;2023-02-03T00:53:34;8.30;99.90
28010;DHT22;15334;49.494;8.410;2023-02-03T00:56:03;8.40;99.90
28010;DHT22;15334;49.494;8.410;2023-02-03T00:58:38;8.40;99.90
28010;DHT22;15334;49.494;8.410;2023-02-03T01:01:07;8.40;99.90
28010;DHT22;15334;49.494;8.410;2023-02-03T01:03:36;8.40;99.90
28010;DHT22;15334;49.494;8.410;2023-02-03T01:06:08;8.40;99.90
28010;DHT22;15334;49.494;8.410;2023-02-03T01:08:37;8.40;99.90
28010;DHT22;15334;49.494;8.410;2023-02-03T01:11:06;8.50;99.90
28010;DHT22;15334;49.494;8.410;2023-02-03T01:13:34;8.50;99.90
28010;DHT22;15334;49.494;8.410;2023-02-03T01:16:07;8.40;99.90
28010;DHT22;15334;49.494;8.410;2023-02-03T01:18:36;8.50;99.90
28010;DHT22;15334;49.494;8.410;2023-02-03T01:21:08;8.40;99.90
28010;DHT22;15334;49.494;8.410;2023-02-03T01:23:37;8.40;99.90
28010;DHT22;15334;49.494;8.410;2023-02-03T01:26:07;8.40;99.90
28010;DHT22;15334;49.494;8.410;2023-02-03T01:28:35;8.50;99.90
28010;DHT22;15334;49.494;8.410;2023-02-03T01:31:13;8.40;99.90
28010;DHT22;15334;49.494;8.410;2023-02-03T01:33:41;8.50;99.90
28010;DHT22;15334;49.494;8.410;2023-02-03T01:36:13;8.50;99.90
28010;DHT22;15334;49.494;8.410;2023-02-03T01:38:42;8.50;99.90
28010;DHT22;15334;49.494;8.410;2023-02-03T01:41:13;8.50;99.90
28010;DHT22;15334;49.494;8.410;2023-02-03T01:43:43;8.50;99.90
28010;DHT22;15334;49.494;8.410;2023-02-03T01:46:21;8.50;99.90
28010;DHT22;15334;49.494;8.410;2023-02-03T01:48:52;8.50;99.90
28010;DHT22;15334;49.494;8.410;2023-02-03T01:51:21;8.50;99.90
28010;DHT22;15334;49.494;8.410;2023-02-03T01:53:52;8.50;99.90
28010;DHT22;15334;49.494;8.410;2023-02-03T01:56:23;8.50;99.90
28010;DHT22;15334;49.494;8.410;2023-02-03T01:58:54;8.50;99.90
28010;DHT22;15334;49.494;8.410;2023-02-03T02:01:26;8.50;99.90
28010;DHT22;15334;49.494;8.410;2023-02-03T02:04:01;8.50;99.90
28010;DHT22;15334;49.494;8.410;2023-02-03T02:06:30;8.50;99.90
28010;DHT22;15334;49.494;8.410;2023-02-03T02:08:59;8.50;99.90
28010;DHT22;15334;49.494;8.410;2023-02-03T02:11:28;8.50;99.90
28010;DHT22;15334;49.494;8.410;2023-02-03T02:13:58;8.40;99.90
28010;DHT22;15334;49.494;8.410;2023-02-03T02:16:36;8.40;99.90
28010;DHT22;15334;49.494;8.410;2023-02-03T02:19:37;8.40;99.90
28010;DHT22;15334;49.494;8.410;2023-02-03T02:22:11;8.40;99.90
28010;DHT22;15334;49.494;8.410;2023-02-03T02:30:59;8.40;99.90
28010;DHT22;15334;49.494;8.410;2023-02-03T02:33:40;8.40;99.90
28010;DHT22;15334;49.494;8.410;2023-02-03T02:36:18;8.30;99.90
28010;DHT22;15334;49.494;8.410;2023-02-03T02:38:55;8.40;99.90
28010;DHT22;15334;49.494;8.410;2023-02-03T02:41:28;8.40;99.90
28010;DHT22;15334;49.494;8.410;2023-02-03T02:44:02;8.40;99.90
28010;DHT22;15334;49.494;8.410;2023-02-03T02:46:31;8.40;99.90
28010;DHT22;15334;49.494;8.410;2023-02-03T02:49:06;8.30;99.90
28010;DHT22;15334;49.494;8.410;2023-02-03T02:51:37;8.30;99.90
28010;DHT22;15334;49.494;8.410;2023-02-03T02:54:07;8.30;99.90
28010;DHT22;15334;49.494;8.410;2023-02-03T02:56:38;8.30;99.90
28010;DHT22;15334;49.494;8.410;2023-02-03T02:59:07;8.30;99.90
28010;DHT22;15334;49.494;8.410;2023-02-03T03:01:39;8.30;99.90
28010;DHT22;15334;49.494;8.410;2023-02-03T03:04:09;8.30;99.90
28010;DHT22;15334;49.494;8.410;2023-02-03T03:06:41;8.30;99.90
28010;DHT22;15334;49.494;8.410;2023-02-03T03:09:14;8.40;99.90
28010;DHT22;15334;49.494;8.410;2023-02-03T03:11:47;8.30;99.90
28010;DHT22;15334;49.494;8.410;2023-02-03T03:14:18;8.40;99.90
28010;DHT22;15334;49.494;8.410;2023-02-03T03:16:53;8.40;99.90
28010;DHT22;15334;49.494;8.410;2023-02-03T03:19:25;8.40;99.90
28010;DHT22;15334;49.494;8.410;2023-02-03T03:21:56;8.40;99.90
28010;DHT22;15334;49.494;8.410;2023-02-03T03:24:30;8.40;99.90
28010;DHT22;15334;49.494;8.410;2023-02-03T03:27:03;8.40;99.90
28010;DHT22;15334;49.494;8.410;2023-02-03T03:29:37;8.50;99.90
28010;DHT22;15334;49.494;8.410;2023-02-03T03:32:07;8.50;99.90
28010;DHT22;15334;49.494;8.410;2023-02-03T03:34:39;8.50;99.90
28010;DHT22;15334;49.494;8.410;2023-02-03T03:37:11;8.50;99.90
28010;DHT22;15334;49.494;8.410;2023-02-03T03:39:47;8.50;99.90
28010;DHT22;15334;49.494;8.410;2023-02-03T03:42:19;8.60;99.90
28010;DHT22;15334;49.494;8.410;2023-02-03T03:44:51;8.60;99.90
28010;DHT22;15334;49.494;8.410;2023-02-03T03:47:26;8.60;99.90
28010;DHT22;15334;49.494;8.410;2023-02-03T03:49:58;8.60;99.90
28010;DHT22;15334;49.494;8.410;2023-02-03T03:52:30;8.70;99.90
28010;DHT22;15334;49.494;8.410;2023-02-03T03:55:01;8.70;99.90
28010;DHT22;15334;49.494;8.410;2023-02-03T03:57:35;8.70;99.90
28010;DHT22;15334;49.494;8.410;2023-02-03T04:00:05;8.70;99.90
28010;DHT22;15334;49.494;8.410;2023-02-03T04:02:39;8.70;99.90
28010;DHT22;15334;49.494;8.410;2023-02-03T04:05:09;8.70;99.90
28010;DHT22;15334;49.494;8.410;2023-02-03T04:07:40;8.70;99.90
28010;DHT22;15334;49.494;8.410;2023-02-03T04:10:15;8.70;99.90
28010;DHT22;15334;49.494;8.410;2023-02-03T04:12:44;8.70;99.90
28010;DHT22;15334;49.494;8.410;2023-02-03T04:15:12;8.70;99.90
28010;DHT22;15334;49.494;8.410;2023-02-03T04:17:43;8.70;99.90
28010;DHT22;15334;49.494;8.410;2023-02-03T04:20:13;8.60;99.90
28010;DHT22;15334;49.494;8.410;2023-02-03T04:22:41;8.70;99.90
28010;DHT22;15334;49.494;8.410;2023-02-03T04:25:17;8.70;99.90
28010;DHT22;15334;49.494;8.410;2023-02-03T04:27:45;8.70;99.90
28010;DHT22;15334;49.494;8.410;2023-02-03T04:30:14;8.70;99.90
28010;DHT22;15334;49.494;8.410;2023-02-03T04:32:44;8.70;99.90
28010;DHT22;15334;49.494;8.410;2023-02-03T04:35:14;8.70;99.90
28010;DHT22;15334;49.494;8.410;2023-02-03T04:37:42;8.70;99.90
28010;DHT22;15334;49.494;8.410;2023-02-03T04:40:10;8.80;99.90
28010;DHT22;15334;49.494;8.410;2023-02-03T04:42:39;8.80;99.90
28010;DHT22;15334;49.494;8.410;2023-02-03T04:45:09;8.80;99.90
28010;DHT22;15334;49.494;8.410;2023-02-03T04:47:38;8.80;99.90
28010;DHT22;15334;49.494;8.410;2023-02-03T04:50:09;8.90;99.90
28010;DHT22;15334;49.494;8.410;2023-02-03T04:52:41;8.90;99.90
28010;DHT22;15334;49.494;8.410;2023-02-03T04:55:09;8.90;99.90
28010;DHT22;15334;49.494;8.410;2023-02-03T04:57:37;8.90;99.90
28010;DHT22;15334;49.494;8.410;2023-02-03T05:00:06;8.90;99.90
28010;DHT22;15334;49.494;8.410;2023-02-03T05:02:34;8.90;99.90
28010;DHT22;15334;49.494;8.410;2023-02-03T05:05:03;8.90;99.90
28010;DHT22;15334;49.494;8.410;2023-02-03T05:07:31;8.90;99.90
28010;DHT22;15334;49.494;8.410;2023-02-03T05:10:00;8.80;99.90
28010;DHT22;15334;49.494;8.410;2023-02-03T05:12:28;8.90;99.90
28010;DHT22;15334;49.494;8.410;2023-02-03T05:14:56;8.80;99.90
28010;DHT22;15334;49.494;8.410;2023-02-03T05:17:24;8.80;99.90
28010;DHT22;15334;49.494;8.410;2023-02-03T05:19:52;8.90;99.90
28010;DHT22;15334;49.494;8.410;2023-02-03T05:22:20;8.90;99.90
28010;DHT22;15334;49.494;8.410;2023-02-03T05:24:49;8.90;99.90
28010;DHT22;15334;49.494;8.410;2023-02-03T05:27:18;8.90;99.90
28010;DHT22;15334;49.494;8.410;2023-02-03T05:29:46;8.90;99.90
28010;DHT22;15334;49.494;8.410;2023-02-03T05:32:17;8.90;99.90
28010;DHT22;15334;49.494;8.410;2023-02-03T05:34:46;8.90;99.90
28010;DHT22;15334;49.494;8.410;2023-02-03T05:37:15;9.00;99.90
28010;DHT22;15334;49.494;8.410;2023-02-03T05:39:43;9.00;99.90
28010;DHT22;15334;49.494;8.410;2023-02-03T05:42:11;9.00;99.90
28010;DHT22;15334;49.494;8.410;2023-02-03T05:44:39;9.00;99.90
28010;DHT22;15334;49.494;8.410;2023-02-03T05:47:07;9.00;99.90
28010;DHT22;15334;49.494;8.410;2023-02-03T05:49:35;9.00;99.90
28010;DHT22;15334;49.494;8.410;2023-02-03T05:52:03;9.00;99.90
28010;DHT22;15334;49.494;8.410;2023-02-03T05:54:31;8.90;99.90
28010;DHT22;15334;49.494;8.410;2023-02-03T05:56:59;8.90;99.90
28010;DHT22;15334;49.494;8.410;2023-02-03T05:59:27;8.90;99.90
28010;DHT22;15334;49.494;8.410;2023-02-03T06:01:57;8.90;99.90
28010;DHT22;15334;49.494;8.410;2023-02-03T06:04:25;8.80;99.90
28010;DHT22;15334;49.494;8.410;2023-02-03T06:06:53;8.90;99.90
28010;DHT22;15334;49.494;8.410;2023-02-03T06:09:21;8.90;99.90
28010;DHT22;15334;49.494;8.410;2023-02-03T06:11:49;8.80;99.90
28010;DHT22;15334;49.494;8.410;2023-02-03T06:14:17;8.90;99.90
28010;DHT22;15334;49.494;8.410;2023-02-03T06:16:45;8.90;99.90
28010;DHT22;15334;49.494;8.410;2023-02-03T06:19:14;8.90;99.90
28010;DHT22;15334;49.494;8.410;2023-02-03T06:21:42;8.90;99.90
28010;DHT22;15334;49.494;8.410;2023-02-03T06:24:10;8.90;99.90
28010;DHT22;15334;49.494;8.410;2023-02-03T06:26:38;8.90;99.90
28010;DHT22;15334;49.494;8.410;2023-02-03T06:29:06;8.90;99.90
28010;DHT22;15334;49.494;8.410;2023-02-03T06:31:34;8.90;99.90
28010;DHT22;15334;49.494;8.410;2023-02-03T06:34:02;8.90;99.90
28010;DHT22;15334;49.494;8.410;2023-02-03T06:36:32;8.90;99.90
28010;DHT22;15334;49.494;8.410;2023-02-03T06:39:00;8.90;99.90
28010;DHT22;15334;49.494;8.410;2023-02-03T06:41:28;8.90;99.90
28010;DHT22;15334;49.494;8.410;2023-02-03T06:43:56;8.90;99.90
28010;DHT22;15334;49.494;8.410;2023-02-03T06:46:24;8.90;99.90
28010;DHT22;15334;49.494;8.410;2023-02-03T06:48:55;8.90;99.90
28010;DHT22;15334;49.494;8.410;2023-02-03T06:51:23;8.90;99.90
28010;DHT22;15334;49.494;8.410;2023-02-03T06:53:53;8.90;99.90
28010;DHT22;15334;49.494;8.410;2023-02-03T06:56:21;8.80;99.90
28010;DHT22;15334;49.494;8.410;2023-02-03T06:58:49;8.70;99.90
28010;DHT22;15334;49.494;8.410;2023-02-03T07:01:17;8.70;99.90
28010;DHT22;15334;49.494;8.410;2023-02-03T07:03:45;8.60;99.90
28010;DHT22;15334;49.494;8.410;2023-02-03T07:06:14;8.60;99.90
28010;DHT22;15334;49.494;8.410;2023-02-03T07:08:42;8.60;99.90
28010;DHT22;15334;49.494;8.410;2023-02-03T07:11:14;8.50;99.90
28010;DHT22;15334;49.494;8.410;2023-02-03T07:13:42;8.50;99.90
28010;DHT22;15334;49.494;8.410;2023-02-03T07:16:16;8.50;99.90
28010;DHT22;15334;49.494;8.410;2023-02-03T07:18:44;8.40;99.90
28010;DHT22;15334;49.494;8.410;2023-02-03T07:21:14;8.40;99.90
28010;DHT22;15334;49.494;8.410;2023-02-03T07:23:45;8.40;99.90
28010;DHT22;15334;49.494;8.410;2023-02-03T07:26:15;8.30;99.90
28010;DHT22;15334;49.494;8.410;2023-02-03T07:28:43;8.30;99.90
28010;DHT22;15334;49.494;8.410;2023-02-03T07:31:11;8.30;99.90
28010;DHT22;15334;49.494;8.410;2023-02-03T07:33:39;8.30;99.90
28010;DHT22;15334;49.494;8.410;2023-02-03T07:36:09;8.40;99.90
28010;DHT22;15334;49.494;8.410;2023-02-03T07:38:37;8.40;99.90
28010;DHT22;15334;49.494;8.410;2023-02-03T07:41:06;8.40;99.90
28010;DHT22;15334;49.494;8.410;2023-02-03T07:43:35;8.50;99.90
28010;DHT22;15334;49.494;8.410;2023-02-03T07:46:03;8.50;99.90
28010;DHT22;15334;49.494;8.410;2023-02-03T07:48:31;8.60;99.90
28010;DHT22;15334;49.494;8.410;2023-02-03T07:51:00;8.60;99.90
28010;DHT22;15334;49.494;8.410;2023-02-03T07:53:28;8.60;99.90
28010;DHT22;15334;49.494;8.410;2023-02-03T07:55:58;8.70;99.90
28010;DHT22;15334;49.494;8.410;2023-02-03T07:58:27;8.70;99.90
28010;DHT22;15334;49.494;8.410;2023-02-03T08:00:57;8.70;99.90
28010;DHT22;15334;49.494;8.410;2023-02-03T08:03:25;8.80;99.90
28010;DHT22;15334;49.494;8.410;2023-02-03T08:05:53;8.80;99.90
28010;DHT22;15334;49.494;8.410;2023-02-03T08:08:21;8.90;99.90
28010;DHT22;15334;49.494;8.410;2023-02-03T08:10:49;8.90;99.90
28010;DHT22;15334;49.494;8.410;2023-02-03T08:13:17;8.90;99.90
28010;DHT22;15334;49.494;8.410;2023-02-03T08:15:46;9.00;99.90
28010;DHT22;15334;49.494;8.410;2023-02-03T08:18:15;9.00;99.90
28010;DHT22;15334;49.494;8.410;2023-02-03T08:20:45;9.00;99.90
28010;DHT22;15334;49.494;8.410;2023-02-03T08:23:13;9.00;99.90
28010;DHT22;15334;49.494;8.410;2023-02-03T08:25:41;9.00;99.90
28010;DHT22;15334;49.494;8.410;2023-02-03T08:28:08;9.10;99.90
28010;DHT22;15334;49.494;8.410;2023-02-03T08:30:37;9.10;99.90
28010;DHT22;15334;49.494;8.410;2023-02-03T08:33:05;9.20;99.90
28010;DHT22;15334;49.494;8.410;2023-02-03T08:35:36;9.20;99.90
28010;DHT22;15334;49.494;8.410;2023-02-03T08:38:04;9.20;99.90
28010;DHT22;15334;49.494;8.410;2023-02-03T08:40:33;9.20;99.90
28010;DHT22;15334;49.494;8.410;2023-02-03T08:43:01;9.20;99.90
28010;DHT22;15334;49.494;8.410;2023-02-03T08:45:29;9.20;99.90
28010;DHT22;15334;49.494;8.410;2023-02-03T08:48:00;9.20;99.90
28010;DHT22;15334;49.494;8.410;2023-02-03T08:50:28;9.20;99.90
28010;DHT22;15334;49.494;8.410;2023-02-03T08:52:58;9.20;99.90
28010;DHT22;15334;49.494;8.410;2023-02-03T08:55:26;9.20;99.90
28010;DHT22;15334;49.494;8.410;2023-02-03T08:57:54;9.30;99.90
28010;DHT22;15334;49.494;8.410;2023-02-03T09:00:22;9.30;99.90
28010;DHT22;15334;49.494;8.410;2023-02-03T09:02:51;9.30;99.90
28010;DHT22;15334;49.494;8.410;2023-02-03T09:05:21;9.30;99.90
28010;DHT22;15334;49.494;8.410;2023-02-03T09:07:49;9.30;99.90
28010;DHT22;15334;49.494;8.410;2023-02-03T09:10:21;9.40;99.90
28010;DHT22;15334;49.494;8.410;2023-02-03T09:12:49;9.40;99.90
28010;DHT22;15334;49.494;8.410;2023-02-03T09:15:17;9.40;99.90
28010;DHT22;15334;49.494;8.410;2023-02-03T09:17:45;9.40;99.90
28010;DHT22;15334;49.494;8.410;2023-02-03T09:20:13;9.40;99.90
28010;DHT22;15334;49.494;8.410;2023-02-03T09:22:41;9.50;99.90
28010;DHT22;15334;49.494;8.410;2023-02-03T09:25:10;9.40;99.90
28010;DHT22;15334;49.494;8.410;2023-02-03T09:27:39;9.50;99.90
28010;DHT22;15334;49.494;8.410;2023-02-03T09:30:08;9.50;99.90
28010;DHT22;15334;49.494;8.410;2023-02-03T09:32:36;9.60;99.90
28010;DHT22;15334;49.494;8.410;2023-02-03T09:35:07;9.60;99.90
28010;DHT22;15334;49.494;8.410;2023-02-03T09:37:35;9.60;99.90
28010;DHT22;15334;49.494;8.410;2023-02-03T09:40:04;9.70;99.90
28010;DHT22;15334;49.494;8.410;2023-02-03T09:45:31;9.80;99.90
28010;DHT22;15334;49.494;8.410;2023-02-03T09:48:04;9.90;99.90
28010;DHT22;15334;49.494;8.410;2023-02-03T09:50:34;9.90;99.90
28010;DHT22;15334;49.494;8.410;2023-02-03T09:53:23;10.00;99.90
28010;DHT22;15334;49.494;8.410;2023-02-03T09:55:54;9.90;99.90
28010;DHT22;15334;49.494;8.410;2023-02-03T09:58:23;9.90;99.90
28010;DHT22;15334;49.494;8.410;2023-02-03T10:00:56;9.80;99.90
28010;DHT22;15334;49.494;8.410;2023-02-03T10:03:31;9.80;99.90
28010;DHT22;15334;49.494;8.410;2023-02-03T10:06:09;9.70;99.90
28010;DHT22;15334;49.494;8.410;2023-02-03T10:08:57;9.70;99.90
28010;DHT22;15334;49.494;8.410;2023-02-03T10:11:40;9.80;99.90
28010;DHT22;15334;49.494;8.410;2023-02-03T10:14:23;9.80;99.90
28010;DHT22;15334;49.494;8.410;2023-02-03T10:17:06;9.80;99.90
28010;DHT22;15334;49.494;8.410;2023-02-03T10:19:41;9.90;99.90
28010;DHT22;15334;49.494;8.410;2023-02-03T10:22:14;10.00;99.90
28010;DHT22;15334;49.494;8.410;2023-02-03T10:24:46;10.00;99.90
28010;DHT22;15334;49.494;8.410;2023-02-03T10:27:16;10.10;99.90
28010;DHT22;15334;49.494;8.410;2023-02-03T10:29:47;10.10;99.90
28010;DHT22;15334;49.494;8.410;2023-02-03T10:32:19;10.10;99.90
28010;DHT22;15334;49.494;8.410;2023-02-03T10:34:47;10.20;99.90
28010;DHT22;15334;49.494;8.410;2023-02-03T10:37:22;10.10;99.90
28010;DHT22;15334;49.494;8.410;2023-02-03T10:39:54;10.20;99.90
28010;DHT22;15334;49.494;8.410;2023-02-03T10:42:23;10.20;99.90
28010;DHT22;15334;49.494;8.410;2023-02-03T10:45:14;10.30;99.90
28010;DHT22;15334;49.494;8.410;2023-02-03T10:47:46;10.40;99.90
28010;DHT22;15334;49.494;8.410;2023-02-03T10:50:17;10.40;99.90
28010;DHT22;15334;49.494;8.410;2023-02-03T10:52:45;10.40;99.90
28010;DHT22;15334;49.494;8.410;2023-02-03T10:55:29;10.40;99.90
28010;DHT22;15334;49.494;8.410;2023-02-03T10:58:05;10.40;99.90
28010;DHT22;15334;49.494;8.410;2023-02-03T11:00:41;10.40;99.90
28010;DHT22;15334;49.494;8.410;2023-02-03T11:03:21;10.30;99.90
28010;DHT22;15334;49.494;8.410;2023-02-03T11:06:06;10.30;99.90
28010;DHT22;15334;49.494;8.410;2023-02-03T11:08:36;10.40;99.90
28010;DHT22;15334;49.494;8.410;2023-02-03T11:11:06;10.30;99.90
28010;DHT22;15334;49.494;8.410;2023-02-03T11:13:35;10.20;99.90
28010;DHT22;15334;49.494;8.410;2023-02-03T11:16:04;10.20;99.90
28010;DHT22;15334;49.494;8.410;2023-02-03T11:18:41;10.20;99.90
28010;DHT22;15334;49.494;8.410;2023-02-03T11:21:14;10.20;99.90
28010;DHT22;15334;49.494;8.410;2023-02-03T11:24:03;10.20;99.90
28010;DHT22;15334;49.494;8.410;2023-02-03T11:26:36;10.20;99.90
28010;DHT22;15334;49.494;8.410;2023-02-03T11:29:15;10.20;99.90
28010;DHT22;15334;49.494;8.410;2023-02-03T11:31:47;10.20;99.90
28010;DHT22;15334;49.494;8.410;2023-02-03T11:34:20;10.20;99.90
28010;DHT22;15334;49.494;8.410;2023-02-03T11:36:52;10.10;99.90
28010;DHT22;15334;49.494;8.410;2023-02-03T11:39:30;10.10;99.90
28010;DHT22;15334;49.494;8.410;2023-02-03T11:42:01;10.10;99.90
28010;DHT22;15334;49.494;8.410;2023-02-03T11:44:32;10.10;99.90
28010;DHT22;15334;49.494;8.410;2023-02-03T11:47:02;10.00;99.90
28010;DHT22;15334;49.494;8.410;2023-02-03T11:50:03;10.10;99.90
28010;DHT22;15334;49.494;8.410;2023-02-03T11:52:49;10.00;99.90
28010;DHT22;15334;49.494;8.410;2023-02-03T11:55:29;10.00;99.90
28010;DHT22;15334;49.494;8.410;2023-02-03T11:58:13;10.00;99.90
28010;DHT22;15334;49.494;8.410;2023-02-03T12:00:52;10.00;99.90
28010;DHT22;15334;49.494;8.410;2023-02-03T12:03:52;9.90;99.90
28010;DHT22;15334;49.494;8.410;2023-02-03T12:06:37;9.90;99.90
28010;DHT22;15334;49.494;8.410;2023-02-03T12:09:21;9.90;99.90
28010;DHT22;15334;49.494;8.410;2023-02-03T12:12:03;9.90;99.90
28010;DHT22;15334;49.494;8.410;2023-02-03T12:14:51;10.00;99.90
28010;DHT22;15334;49.494;8.410;2023-02-03T12:17:40;10.00;99.90
28010;DHT22;15334;49.494;8.410;2023-02-03T12:20:37;10.10;99.90
28010;DHT22;15334;49.494;8.410;2023-02-03T12:23:22;10.10;99.90
28010;DHT22;15334;49.494;8.410;2023-02-03T12:26:00;10.10;99.90
28010;DHT22;15334;49.494;8.410;2023-02-03T12:28:45;10.10;99.90
28010;DHT22;15334;49.494;8.410;2023-02-03T12:31:19;10.10;99.90
28010;DHT22;15334;49.494;8.410;2023-02-03T12:34:02;10.30;99.90
28010;DHT22;15334;49.494;8.410;2023-02-03T12:36:39;10.30;99.90
28010;DHT22;15334;49.494;8.410;2023-02-03T12:39:18;10.30;99.90
28010;DHT22;15334;49.494;8.410;2023-02-03T12:41:53;10.40;99.90
28010;DHT22;15334;49.494;8.410;2023-02-03T12:44:29;10.40;99.90
28010;DHT22;15334;49.494;8.410;2023-02-03T12:47:03;10.50;99.90
28010;DHT22;15334;49.494;8.410;2023-02-03T12:49:38;10.40;99.90
28010;DHT22;15334;49.494;8.410;2023-02-03T12:52:16;10.30;99.90
28010;DHT22;15334;49.494;8.410;2023-02-03T12:54:56;10.30;99.90
28010;DHT22;15334;49.494;8.410;2023-02-03T12:57:33;10.20;99.90
28010;DHT22;15334;49.494;8.410;2023-02-03T13:00:24;10.20;99.90
28010;DHT22;15334;49.494;8.410;2023-02-03T13:03:08;10.20;99.90
28010;DHT22;15334;49.494;8.410;2023-02-03T13:05:42;10.30;99.90
28010;DHT22;15334;49.494;8.410;2023-02-03T13:08:12;10.30;99.90
28010;DHT22;15334;49.494;8.410;2023-02-03T13:10:48;10.20;99.90
28010;DHT22;15334;49.494;8.410;2023-02-03T13:13:23;10.30;99.90
28010;DHT22;15334;49.494;8.410;2023-02-03T13:15:56;10.30;99.90
28010;DHT22;15334;49.494;8.410;2023-02-03T13:18:26;10.20;99.90
28010;DHT22;15334;49.494;8.410;2023-02-03T13:20:55;10.30;99.90
28010;DHT22;15334;49.494;8.410;2023-02-03T13:23:24;10.40;99.90
28010;DHT22;15334;49.494;8.410;2023-02-03T13:26:19;10.30;99.90
28010;DHT22;15334;49.494;8.410;2023-02-03T13:29:06;10.30;99.90
28010;DHT22;15334;49.494;8.410;2023-02-03T13:31:48;10.30;99.90
28010;DHT22;15334;49.494;8.410;2023-02-03T13:34:37;10.30;99.90
28010;DHT22;15334;49.494;8.410;2023-02-03T13:37:36;10.20;99.90
28010;DHT22;15334;49.494;8.410;2023-02-03T13:40:21;10.10;99.90
28010;DHT22;15334;49.494;8.410;2023-02-03T13:42:58;10.10;99.90
28010;DHT22;15334;49.494;8.410;2023-02-03T13:45:31;10.10;99.90
28010;DHT22;15334;49.494;8.410;2023-02-03T13:48:08;10.10;99.90
28010;DHT22;15334;49.494;8.410;2023-02-03T13:50:37;10.10;99.90
28010;DHT22;15334;49.494;8.410;2023-02-03T13:53:14;10.10;99.90
28010;DHT22;15334;49.494;8.410;2023-02-03T13:55:51;10.00;99.90
28010;DHT22;15334;49.494;8.410;2023-02-03T13:58:23;10.00;99.90
28010;DHT22;15334;49.494;8.410;2023-02-03T14:01:01;10.00;99.90
28010;DHT22;15334;49.494;8.410;2023-02-03T14:03:43;10.10;99.90
28010;DHT22;15334;49.494;8.410;2023-02-03T14:06:55;10.10;99.90
28010;DHT22;15334;49.494;8.410;2023-02-03T14:09:39;10.10;99.90
28010;DHT22;15334;49.494;8.410;2023-02-03T14:12:30;10.10;99.90
28010;DHT22;15334;49.494;8.410;2023-02-03T14:15:15;10.10;99.90
28010;DHT22;15334;49.494;8.410;2023-02-03T14:23:58;9.90;99.90
28010;DHT22;15334;49.494;8.410;2023-02-03T14:26:40;9.90;99.90
28010;DHT22;15334;49.494;8.410;2023-02-03T14:29:24;9.90;99.90
28010;DHT22;15334;49.494;8.410;2023-02-03T14:31:58;10.00;99.90
28010;DHT22;15334;49.494;8.410;2023-02-03T14:34:38;10.00;99.90
28010;DHT22;15334;49.494;8.410;2023-02-03T14:37:16;10.00;99.90
28010;DHT22;15334;49.494;8.410;2023-02-03T14:40:26;10.00;99.90
28010;DHT22;15334;49.494;8.410;2023-02-03T14:43:27;10.00;99.90
28010;DHT22;15334;49.494;8.410;2023-02-03T14:46:18;10.00;99.90
28010;DHT22;15334;49.494;8.410;2023-02-03T14:49:07;10.00;99.90
28010;DHT22;15334;49.494;8.410;2023-02-03T14:51:56;10.00;99.90
28010;DHT22;15334;49.494;8.410;2023-02-03T14:54:44;10.00;99.90
28010;DHT22;15334;49.494;8.410;2023-02-03T14:57:25;9.90;99.90
28010;DHT22;15334;49.494;8.410;2023-02-03T14:59:58;9.90;99.90
28010;DHT22;15334;49.494;8.410;2023-02-03T15:02:30;9.90;99.90
28010;DHT22;15334;49.494;8.410;2023-02-03T15:05:35;10.00;99.90
28010;DHT22;15334;49.494;8.410;2023-02-03T15:10:48;10.00;99.90
28010;DHT22;15334;49.494;8.410;2023-02-03T15:13:23;10.00;99.90
28010;DHT22;15334;49.494;8.410;2023-02-03T15:15:54;10.10;99.90
28010;DHT22;15334;49.494;8.410;2023-02-03T15:18:28;10.00;99.90
28010;DHT22;15334;49.494;8.410;2023-02-03T15:20:58;10.00;99.90
28010;DHT22;15334;49.494;8.410;2023-02-03T15:23:37;10.00;99.90
28010;DHT22;15334;49.494;8.410;2023-02-03T15:26:15;10.00;99.90
28010;DHT22;15334;49.494;8.410;2023-02-03T15:28:55;9.90;99.90
28010;DHT22;15334;49.494;8.410;2023-02-03T15:31:28;9.90;99.90
28010;DHT22;15334;49.494;8.410;2023-02-03T15:34:05;9.90;99.90
28010;DHT22;15334;49.494;8.410;2023-02-03T15:36:41;9.80;99.90
28010;DHT22;15334;49.494;8.410;2023-02-03T15:39:18;9.80;99.90
28010;DHT22;15334;49.494;8.410;2023-02-03T15:41:50;9.70;99.90
28010;DHT22;15334;49.494;8.410;2023-02-03T15:44:27;9.80;99.90
28010;DHT22;15334;49.494;8.410;2023-02-03T15:46:59;9.80;99.90
28010;DHT22;15334;49.494;8.410;2023-02-03T15:49:31;9.80;99.90
28010;DHT22;15334;49.494;8.410;2023-02-03T15:52:08;9.80;99.90
28010;DHT22;15334;49.494;8.410;2023-02-03T15:54:40;9.70;99.90
28010;DHT22;15334;49.494;8.410;2023-02-03T15:57:16;9.70;99.90
28010;DHT22;15334;49.494;8.410;2023-02-03T15:59:52;9.70;99.90
28010;DHT22;15334;49.494;8.410;2023-02-03T16:02:26;9.70;99.90
28010;DHT22;15334;49.494;8.410;2023-02-03T16:05:04;9.70;99.90
28010;DHT22;15334;49.494;8.410;2023-02-03T16:07:34;9.60;99.90
28010;DHT22;15334;49.494;8.410;2023-02-03T16:10:02;9.70;99.90
28010;DHT22;15334;49.494;8.410;2023-02-03T16:12:34;9.60;99.90
28010;DHT22;15334;49.494;8.410;2023-02-03T16:15:03;9.70;99.90
28010;DHT22;15334;49.494;8.410;2023-02-03T16:17:32;9.70;99.90
28010;DHT22;15334;49.494;8.410;2023-02-03T16:20:23;9.60;99.90
28010;DHT22;15334;49.494;8.410;2023-02-03T16:23:16;9.70;99.90
28010;DHT22;15334;49.494;8.410;2023-02-03T16:26:01;9.70;99.90
28010;DHT22;15334;49.494;8.410;2023-02-03T16:28:29;9.70;99.90
28010;DHT22;15334;49.494;8.410;2023-02-03T16:31:16;9.70;99.90
28010;DHT22;15334;49.494;8.410;2023-02-03T16:34:13;9.70;99.90
28010;DHT22;15334;49.494;8.410;2023-02-03T16:36:59;9.70;99.90
28010;DHT22;15334;49.494;8.410;2023-02-03T16:39:46;9.70;99.90